Temp: 15.2°C   Baro: 1019.3mb
  Wind: 0.9mph   Dir: NW (310°)
  Rain: 0.2mm (0.0mm/hr)
  Solar: 229W/m2  Hum: 69%
 
Bath Spa Weather Station Historical Data
Daily Summary for June 14, 2019 Units:  Metric    English   Both
Daily Weekly Monthly Yearly Custom
  High: Low: Average:
Temperature: 16.7 °C 10.9 °C 13.9 °C
Dew Point: 11.9 °C 8.2 °C 10.3 °C
Humidity: 92% 64.4% 79%
Wind Speed: 24.3km/h 0.3km/h 9.7km/h
Wind Gust: 38.6km/h - -
Wind- - SSW
Pressure: 1010.7 hPa 1006.3 hPa -
Precipitation: 1.02 mm    
Historical Graphs
 
 
Tabular Data for June 14, 2019
Time Temperature Dew Point Pressure Wind Wind Speed Wind Gust Humidity Rainfall Rate (Hourly) solar
06:14 11.3 °C 10.1 °C 1006.3 hPa SSW 6.1 km/h 11.3 km/h 92% 0 mm 23 W/m2
06:19 11.4 °C 10.1 °C 1006.3 hPa SSW 5.5 km/h 12.9 km/h 92% 0 mm 25 W/m2
06:24 11.4 °C 10.1 °C 1006.3 hPa SSW 4.2 km/h 12.9 km/h 92% 0 mm 25 W/m2
06:29 11.4 °C 10.1 °C 1006.7 hPa SW 7.2 km/h 12.9 km/h 92% 0 mm 26 W/m2
06:34 11.4 °C 10.2 °C 1006.3 hPa SSW 7.6 km/h 14.5 km/h 92% 0 mm 26 W/m2
06:39 11.5 °C 10.2 °C 1006.7 hPa SSW 9.7 km/h 19.3 km/h 92% 0 mm 25 W/m2
06:44 11.5 °C 10.2 °C 1006.7 hPa SW 7.1 km/h 14.5 km/h 92% 0 mm 23 W/m2
06:49 11.5 °C 10.2 °C 1006.7 hPa SSW 7.4 km/h 16.1 km/h 92% 0 mm 23 W/m2
06:54 11.5 °C 10.2 °C 1006.7 hPa SW 6.4 km/h 16.1 km/h 92% 0 mm 25 W/m2
06:59 11.5 °C 10.2 °C 1006.7 hPa SSW 6.3 km/h 11.3 km/h 92% 0 mm 32 W/m2
07:04 11.6 °C 10.3 °C 1006.7 hPa SSW 5.6 km/h 11.3 km/h 92% 0 mm 37 W/m2
07:09 11.6 °C 10.2 °C 1006.7 hPa SSW 5.8 km/h 11.3 km/h 91.1% 0 mm 39 W/m2
07:14 11.6 °C 10.2 °C 1006.7 hPa SW 6.6 km/h 12.9 km/h 91% 0 mm 51 W/m2
07:19 11.7 °C 10.3 °C 1007 hPa SW 6 km/h 14.5 km/h 91% 0 mm 51 W/m2
07:24 11.7 °C 10.3 °C 1007 hPa SSW 7.6 km/h 17.7 km/h 91% 0 mm 42 W/m2
07:29 11.7 °C 10.3 °C 1007 hPa SW 6.3 km/h 19.3 km/h 91% 0 mm 42 W/m2
07:34 11.7 °C 10.3 °C 1007 hPa SSW 5.5 km/h 11.3 km/h 91% 0 mm 49 W/m2
07:39 11.7 °C 10.3 °C 1007 hPa SSW 4.3 km/h 17.7 km/h 91% 0 mm 49 W/m2
07:44 11.7 °C 10.3 °C 1007 hPa SW 5.5 km/h 11.3 km/h 91% 0 mm 39 W/m2
07:49 11.7 °C 10.3 °C 1007 hPa SW 6.9 km/h 14.5 km/h 91% 0 mm 49 W/m2
07:54 11.7 °C 10.3 °C 1007 hPa SSW 4 km/h 12.9 km/h 91% 0 mm 63 W/m2
07:59 11.8 °C 10.3 °C 1007 hPa SW 4.3 km/h 12.9 km/h 91% 0 mm 65 W/m2
08:04 11.8 °C 10.4 °C 1007 hPa SSW 6.8 km/h 17.7 km/h 91% 0 mm 79 W/m2
08:09 11.8 °C 10.4 °C 1007.3 hPa SW 6.6 km/h 16.1 km/h 91.6% 0 mm 74 W/m2
08:14 11.8 °C 10.5 °C 1007.3 hPa SSW 7.7 km/h 14.5 km/h 92% 0 mm 76 W/m2
08:19 11.8 °C 10.4 °C 1007.3 hPa SW 6 km/h 16.1 km/h 91.1% 0 mm 62 W/m2
08:24 11.8 °C 10.4 °C 1007.3 hPa SSW 8.5 km/h 17.7 km/h 91% 0 mm 62 W/m2
08:29 11.8 °C 10.4 °C 1007.3 hPa SW 8.7 km/h 16.1 km/h 91% 0 mm 56 W/m2
08:34 11.9 °C 10.5 °C 1007.3 hPa SW 6.6 km/h 16.1 km/h 91% 0 mm 69 W/m2
08:39 11.9 °C 10.5 °C 1007.3 hPa SW 4.5 km/h 11.3 km/h 91% 0 mm 79 W/m2
08:44 11.9 °C 10.6 °C 1007.3 hPa SSW 5.5 km/h 11.3 km/h 91% 0 mm 86 W/m2
08:49 12 °C 10.5 °C 1007.3 hPa SSW 6.3 km/h 12.9 km/h 90.6% 0 mm 84 W/m2
08:54 12 °C 10.4 °C 1007.3 hPa SW 3.5 km/h 12.9 km/h 90% 0 mm 90 W/m2
08:59 12 °C 10.4 °C 1007.7 hPa SW 10.5 km/h 19.3 km/h 90% 0 mm 90 W/m2
09:04 12.1 °C 10.4 °C 1007.7 hPa SSW 6.3 km/h 19.3 km/h 90% 0 mm 104 W/m2
09:09 12.2 °C 10.6 °C 1007.7 hPa SSW 5.1 km/h 14.5 km/h 90% 0 mm 121 W/m2
09:14 12.2 °C 10.6 °C 1007.7 hPa SW 9.2 km/h 16.1 km/h 90% 0 mm 128 W/m2
09:19 12.3 °C 10.7 °C 1007.7 hPa SW 11.3 km/h 22.5 km/h 90% 0 mm 105 W/m2
09:24 12.3 °C 10.7 °C 1008 hPa SW 8 km/h 19.3 km/h 90% 0 mm 130 W/m2
09:29 12.4 °C 10.8 °C 1008 hPa SW 4.5 km/h 19.3 km/h 90% 0 mm 171 W/m2
09:34 12.5 °C 10.9 °C 1007.7 hPa SSW 7.4 km/h 16.1 km/h 89.8% 0 mm 207 W/m2
09:39 12.7 °C 10.8 °C 1008 hPa SW 7.1 km/h 16.1 km/h 89% 0 mm 213 W/m2
09:44 12.8 °C 11 °C 1008 hPa SSW 6.1 km/h 16.1 km/h 89.2% 0 mm 192 W/m2
09:49 12.8 °C 11 °C 1007.7 hPa SSW 5.5 km/h 12.9 km/h 89% 0 mm 236 W/m2
09:54 12.9 °C 11.1 °C 1007.7 hPa SSW 4.8 km/h 9.7 km/h 89% 0 mm 230 W/m2
09:59 13.1 °C 11.2 °C 1007.7 hPa SW 8.7 km/h 17.7 km/h 89% 0 mm 229 W/m2
10:04 13.2 °C 11.3 °C 1008 hPa SW 8.5 km/h 22.5 km/h 88.3% 0 mm 292 W/m2
10:09 13.2 °C 11.3 °C 1008 hPa WSW 9.2 km/h 14.5 km/h 87.8% 0 mm 522 W/m2
10:14 13.4 °C 11.3 °C 1008 hPa SW 12.2 km/h 22.5 km/h 86.7% 0 mm 650 W/m2
10:19 13.7 °C 11.3 °C 1008 hPa SW 12.2 km/h 19.3 km/h 85.7% 0 mm 591 W/m2
10:24 14 °C 11.5 °C 1008 hPa SW 11.4 km/h 22.5 km/h 84.9% 0 mm 664 W/m2
10:29 14.2 °C 11.5 °C 1008 hPa SW 10 km/h 22.5 km/h 83.9% 0 mm 396 W/m2
10:34 14.3 °C 11.5 °C 1008 hPa SSW 7.4 km/h 19.3 km/h 83% 0 mm 406 W/m2
10:39 14.3 °C 11.4 °C 1008 hPa SW 12.1 km/h 20.9 km/h 82.7% 0 mm 357 W/m2
10:44 14.1 °C 11.2 °C 1008 hPa SW 10.8 km/h 19.3 km/h 82.8% 0 mm 526 W/m2
10:49 14.1 °C 11.4 °C 1008 hPa SSW 7.7 km/h 17.7 km/h 83.5% 0 mm 541 W/m2
10:54 14.3 °C 11.4 °C 1008 hPa SW 10.6 km/h 22.5 km/h 82.7% 0 mm 768 W/m2
10:59 14.5 °C 11.4 °C 1008 hPa SW 7.9 km/h 16.1 km/h 81.6% 0 mm 768 W/m2
11:04 14.9 °C 11.7 °C 1008 hPa SSW 7.9 km/h 16.1 km/h 81.1% 0 mm 656 W/m2
11:09 14.9 °C 11.5 °C 1008 hPa SSW 10.9 km/h 19.3 km/h 79.6% 0 mm 294 W/m2
11:14 14.8 °C 11.4 °C 1008 hPa SSW 11.1 km/h 22.5 km/h 80% 0 mm 466 W/m2
11:19 14.7 °C 11.5 °C 1008 hPa SSW 11.9 km/h 22.5 km/h 81% 0 mm 534 W/m2
11:24 14.8 °C 11.6 °C 1008.4 hPa SSW 10 km/h 20.9 km/h 80.9% 0 mm 534 W/m2
11:29 14.8 °C 11.6 °C 1008 hPa SSW 14.5 km/h 22.5 km/h 81% 0 mm 457 W/m2
11:34 14.8 °C 11.6 °C 1008.4 hPa SSW 10.6 km/h 22.5 km/h 80.8% 0 mm 520 W/m2
11:39 14.9 °C 11.4 °C 1008 hPa SSW 13.7 km/h 27.4 km/h 79.5% 0 mm 403 W/m2
11:44 15.1 °C 11.5 °C 1008 hPa SSW 10.3 km/h 20.9 km/h 79% 0 mm 431 W/m2
11:49 15.3 °C 11.4 °C 1008 hPa South 16.4 km/h 27.4 km/h 77.2% 0 mm 605 W/m2
11:54 15.4 °C 11.6 °C 1008 hPa SSW 14 km/h 25.7 km/h 77.5% 0 mm 605 W/m2
11:59 15.5 °C 11.6 °C 1008 hPa SSW 10.6 km/h 24.1 km/h 77.1% 0 mm 494 W/m2
12:04 15.5 °C 11.6 °C 1008.4 hPa South 14.8 km/h 25.7 km/h 77.7% 0 mm 856 W/m2
12:09 15.3 °C 11.5 °C 1008.4 hPa SSW 16.4 km/h 32.2 km/h 77.8% 0 mm 868 W/m2
12:14 15.3 °C 11.4 °C 1008.4 hPa South 12.6 km/h 27.4 km/h 78% 0 mm 459 W/m2
12:19 15.2 °C 11.5 °C 1008.4 hPa SSW 9.8 km/h 25.7 km/h 78.2% 0 mm 271 W/m2
12:24 14.9 °C 11.6 °C 1008.4 hPa SSW 10.3 km/h 24.1 km/h 80.2% 0 mm 225 W/m2
12:29 14.7 °C 11.6 °C 1008.4 hPa SW 11.7 km/h 22.5 km/h 81.4% 0 mm 204 W/m2
12:34 14.4 °C 11.3 °C 1008.4 hPa SW 19.8 km/h 30.6 km/h 81.7% 0.25 mm 262 W/m2
12:39 14.1 °C 11.2 °C 1008.4 hPa SSW 10.3 km/h 30.6 km/h 82.8% 0.51 mm 425 W/m2
12:44 14 °C 11.3 °C 1008.4 hPa WSW 10.1 km/h 16.1 km/h 84% 0.51 mm 455 W/m2
12:49 14.1 °C 11.6 °C 1008.4 hPa WSW 6.9 km/h 16.1 km/h 84.7% 0.51 mm 587 W/m2
12:54 14.4 °C 11.9 °C 1008.4 hPa SW 8.2 km/h 16.1 km/h 85% 0.51 mm 587 W/m2
12:59 14.7 °C 11.7 °C 1008.4 hPa SW 14.8 km/h 29 km/h 82.6% 0.51 mm 309 W/m2
13:04 14.8 °C 11.4 °C 1008.4 hPa SW 13 km/h 27.4 km/h 79.5% 0.51 mm 309 W/m2
13:09 15 °C 11.2 °C 1008.4 hPa SW 11.3 km/h 27.4 km/h 77.9% 0.51 mm 466 W/m2
13:14 15.2 °C 11.4 °C 1008.4 hPa South 12.4 km/h 25.7 km/h 77.7% 0.51 mm 496 W/m2
13:19 15.4 °C 11.3 °C 1008.4 hPa SW 11.4 km/h 25.7 km/h 76.5% 0.51 mm 475 W/m2
13:24 15.4 °C 11.1 °C 1008.4 hPa SW 14.8 km/h 29 km/h 75.2% 0.51 mm 415 W/m2
13:29 15.3 °C 10.9 °C 1008.4 hPa SW 11.6 km/h 24.1 km/h 74.9% 0.51 mm 404 W/m2
13:34 15.6 °C 11.3 °C 1008.4 hPa SSW 8.2 km/h 24.1 km/h 75.7% 0.25 mm 571 W/m2
13:39 15.9 °C 11.3 °C 1008.4 hPa SSW 15.9 km/h 32.2 km/h 74.3% 0.25 mm 691 W/m2
13:44 15.9 °C 11.2 °C 1008.4 hPa SW 16.1 km/h 32.2 km/h 73.2% 0 mm 550 W/m2
13:49 15.8 °C 10.8 °C 1008.7 hPa SW 18.8 km/h 32.2 km/h 72.1% 0 mm 568 W/m2
13:54 15.8 °C 11 °C 1008.4 hPa SSW 14.2 km/h 32.2 km/h 73.1% 0 mm 631 W/m2
13:59 15.9 °C 11.1 °C 1008.4 hPa SSW 12.4 km/h 29 km/h 72.6% 0 mm 420 W/m2
14:04 15.9 °C 11 °C 1008.7 hPa South 8.9 km/h 22.5 km/h 72.5% 0 mm 420 W/m2
14:09 15.8 °C 10.9 °C 1008.7 hPa SW 14.2 km/h 24.1 km/h 72.7% 0 mm 807 W/m2
14:14 15.7 °C 11.1 °C 1008.7 hPa South 12.7 km/h 29 km/h 74% 0 mm 717 W/m2
14:19 15.6 °C 10.8 °C 1008.7 hPa SSW 15.8 km/h 29 km/h 73.6% 0 mm 281 W/m2
14:24 15.5 °C 10.8 °C 1008.7 hPa SSW 12.4 km/h 24.1 km/h 73.8% 0 mm 327 W/m2
14:29 15.4 °C 10.7 °C 1008.7 hPa SSW 12.4 km/h 24.1 km/h 73% 0 mm 471 W/m2
14:34 15.6 °C 10.9 °C 1008.7 hPa SSW 10 km/h 22.5 km/h 73.4% 0 mm 777 W/m2
14:39 16.2 °C 11.1 °C 1008.7 hPa SSW 14.5 km/h 32.2 km/h 72.3% 0 mm 417 W/m2
14:44 15.9 °C 10.4 °C 1008.7 hPa SSW 15.6 km/h 32.2 km/h 69.8% 0 mm 404 W/m2
14:49 15.9 °C 10.4 °C 1008.7 hPa SSW 12.4 km/h 25.7 km/h 70% 0 mm 404 W/m2
14:54 15.9 °C 10.4 °C 1008.7 hPa South 19.2 km/h 32.2 km/h 69.8% 0 mm 425 W/m2
14:59 16.1 °C 10.4 °C 1008.7 hPa South 17.1 km/h 33.8 km/h 69.2% 0 mm 462 W/m2
15:04 16.1 °C 10.3 °C 1008.7 hPa SSW 11.7 km/h 33.8 km/h 68.4% 0 mm 457 W/m2
15:09 16.2 °C 10.5 °C 1008.7 hPa SSW 10.6 km/h 29 km/h 69% 0 mm 295 W/m2
15:14 16 °C 10.1 °C 1008.7 hPa SSW 10.1 km/h 29 km/h 68% 0 mm 392 W/m2
15:19 16 °C 10.1 °C 1008.7 hPa SSW 16.3 km/h 30.6 km/h 68% 0 mm 582 W/m2
15:24 16.1 °C 10 °C 1009 hPa SSW 16.1 km/h 30.6 km/h 67.2% 0 mm 582 W/m2
15:29 16.2 °C 9.9 °C 1008.7 hPa SSW 15.1 km/h 29 km/h 66.6% 0 mm 394 W/m2
15:34 16.2 °C 10.1 °C 1009 hPa SSW 13.5 km/h 29 km/h 67% 0 mm 520 W/m2
15:39 16.4 °C 10.2 °C 1009 hPa SSW 14.6 km/h 27.4 km/h 66.2% 0 mm 1076 W/m2
15:44 16.4 °C 10 °C 1008.7 hPa South 16.4 km/h 29 km/h 65.9% 0 mm 1076 W/m2
15:49 16.4 °C 9.8 °C 1008.7 hPa SSW 24.3 km/h 38.6 km/h 65.1% 0 mm 854 W/m2
15:54 16.6 °C 9.9 °C 1008.7 hPa South 15.6 km/h 38.6 km/h 64.7% 0 mm 780 W/m2
15:59 16.7 °C 9.9 °C 1009 hPa SSW 18.2 km/h 32.2 km/h 64.4% 0 mm 793 W/m2
16:04 16.7 °C 10.8 °C 1009 hPa SSW 19.2 km/h 38.6 km/h 67.9% 0 mm 884 W/m2
16:09 16.7 °C 10.7 °C 1009 hPa South 16.6 km/h 38.6 km/h 67.8% 0 mm 870 W/m2
16:14 16.4 °C 10.7 °C 1009 hPa SSW 15.3 km/h 32.2 km/h 68.8% 0 mm 888 W/m2
16:19 16.4 °C 10.7 °C 1009 hPa SSW 16.4 km/h 30.6 km/h 68.9% 0 mm 863 W/m2
16:24 16.1 °C 10.4 °C 1009 hPa South 20 km/h 35.4 km/h 69% 0 mm 863 W/m2
16:29 16.2 °C 10.7 °C 1009 hPa SW 14.5 km/h 29 km/h 70% 0 mm 761 W/m2
16:34 16.1 °C 10.6 °C 1009 hPa SSW 14.2 km/h 30.6 km/h 70% 0 mm 251 W/m2
16:39 15.8 °C 10.3 °C 1009 hPa SW 14.8 km/h 27.4 km/h 69.9% 0 mm 225 W/m2
16:44 15.6 °C 10.2 °C 1009 hPa SW 12.4 km/h 27.4 km/h 70.4% 0 mm 285 W/m2
16:49 15.6 °C 10.4 °C 1009 hPa SW 9.8 km/h 22.5 km/h 71% 0 mm 250 W/m2
16:54 15.4 °C 10.2 °C 1009 hPa SW 16.3 km/h 30.6 km/h 71% 0 mm 837 W/m2
16:59 15.8 °C 10.6 °C 1009 hPa SW 12.4 km/h 25.7 km/h 71% 0 mm 773 W/m2
17:04 15.9 °C 10.5 °C 1009 hPa SSW 15.9 km/h 29 km/h 70.3% 0 mm 758 W/m2
17:09 15.7 °C 10.6 °C 1009 hPa SSW 15.8 km/h 32.2 km/h 71.4% 0 mm 687 W/m2
17:14 15.7 °C 10.6 °C 1009 hPa SSW 11.9 km/h 32.2 km/h 71.4% 0 mm 722 W/m2
17:19 15.7 °C 10.6 °C 1009 hPa SSW 11.1 km/h 22.5 km/h 71.6% 0 mm 338 W/m2
17:24 15.5 °C 10.4 °C 1009 hPa South 14.5 km/h 25.7 km/h 71.9% 0 mm 682 W/m2
17:29 15.7 °C 10.5 °C 1009 hPa South 15.6 km/h 35.4 km/h 71.1% 0 mm 724 W/m2
17:34 15.8 °C 10.3 °C 1009 hPa SSW 16.9 km/h 30.6 km/h 70% 0 mm 693 W/m2
17:39 15.6 °C 10.3 °C 1009 hPa SSW 16.6 km/h 30.6 km/h 71% 0 mm 555 W/m2
17:44 15.7 °C 10.4 °C 1009 hPa SW 14.3 km/h 27.4 km/h 71% 0 mm 519 W/m2
17:49 15.7 °C 10.4 °C 1009 hPa SSW 11.4 km/h 27.4 km/h 71% 0 mm 503 W/m2
17:54 15.6 °C 10.4 °C 1009 hPa SW 15.8 km/h 24.1 km/h 71% 0 mm 497 W/m2
17:59 15.4 °C 10.3 °C 1009 hPa SW 19.2 km/h 30.6 km/h 71.4% 0 mm 480 W/m2
18:04 15.3 °C 10.3 °C 1009 hPa SW 15 km/h 30.6 km/h 72% 0 mm 473 W/m2
18:09 15.6 °C 10.6 °C 1009 hPa SSW 8.7 km/h 22.5 km/h 72% 0 mm 452 W/m2
18:14 15.6 °C 10.6 °C 1009 hPa SW 16.1 km/h 30.6 km/h 71.8% 0 mm 443 W/m2
18:19 15.3 °C 10.3 °C 1009 hPa SW 16.4 km/h 30.6 km/h 72.1% 0 mm 457 W/m2
18:24 15.4 °C 10.6 °C 1009 hPa SSW 9.3 km/h 22.5 km/h 73% 0 mm 431 W/m2
18:29 15.6 °C 10.6 °C 1009 hPa SSW 13 km/h 25.7 km/h 72.2% 0 mm 403 W/m2
18:34 15.6 °C 10.6 °C 1009.4 hPa SW 14.5 km/h 27.4 km/h 72% 0 mm 422 W/m2
18:39 15.4 °C 10.4 °C 1009.4 hPa SSW 16.4 km/h 33.8 km/h 72% 0 mm 396 W/m2
18:44 15.2 °C 10.2 °C 1009.4 hPa South 16.7 km/h 33.8 km/h 72% 0 mm 388 W/m2
18:49 15.1 °C 10.1 °C 1009.7 hPa SSW 11.9 km/h 29 km/h 72% 0 mm 111 W/m2
18:54 15 °C 10 °C 1009.7 hPa SSW 12.9 km/h 25.7 km/h 72% 0 mm 330 W/m2
18:59 14.9 °C 9.9 °C 1009.7 hPa SSW 10.1 km/h 25.7 km/h 72% 0 mm 306 W/m2
19:04 14.9 °C 9.9 °C 1009.7 hPa SSW 8.4 km/h 22.5 km/h 72% 0 mm 62 W/m2
19:09 14.8 °C 9.9 °C 1009.7 hPa SW 9.7 km/h 19.3 km/h 72.7% 0 mm 72 W/m2
19:14 14.7 °C 9.9 °C 1009.7 hPa SSW 9.2 km/h 17.7 km/h 73% 0 mm 186 W/m2
19:19 14.8 °C 10 °C 1009.7 hPa SW 10.5 km/h 25.7 km/h 73% 0 mm 186 W/m2
19:24 14.7 °C 9.7 °C 1009.7 hPa SW 14.3 km/h 25.7 km/h 72.4% 0 mm 265 W/m2
19:29 14.7 °C 9.8 °C 1009.7 hPa SW 10.1 km/h 17.7 km/h 73% 0 mm 265 W/m2
19:34 14.8 °C 9.9 °C 1009.7 hPa SW 8 km/h 14.5 km/h 73% 0 mm 213 W/m2
19:39 14.8 °C 9.9 °C 1009.7 hPa SW 10.3 km/h 17.7 km/h 73% 0 mm 204 W/m2
19:44 14.8 °C 10.1 °C 1009.7 hPa West 6.4 km/h 16.1 km/h 73.5% 0 mm 209 W/m2
19:49 14.8 °C 10.3 °C 1009.7 hPa West 3.5 km/h 14.5 km/h 74.6% 0 mm 176 W/m2
19:54 14.8 °C 10.4 °C 1009.7 hPa WNW 5.6 km/h 12.9 km/h 75% 0 mm 151 W/m2
19:59 14.7 °C 10.3 °C 1009.7 hPa WNW 5.6 km/h 9.7 km/h 75% 0 mm 134 W/m2
20:04 14.7 °C 10.3 °C 1009.7 hPa WNW 3.4 km/h 9.7 km/h 75% 0 mm 121 W/m2
20:09 14.7 °C 10.3 °C 1009.7 hPa NW 0.8 km/h 8 km/h 75% 0 mm 118 W/m2
20:14 14.6 °C 10.2 °C 1009.7 hPa WNW 3.5 km/h 9.7 km/h 75% 0 mm 90 W/m2
20:19 14.3 °C 9.9 °C 1009.7 hPa SSW 8 km/h 14.5 km/h 74.8% 0 mm 62 W/m2
20:24 14.2 °C 9.6 °C 1009.7 hPa SSW 6.1 km/h 12.9 km/h 74% 0 mm 53 W/m2
20:29 14.2 °C 9.6 °C 1010 hPa SSW 6.8 km/h 11.3 km/h 74% 0 mm 42 W/m2
20:34 14 °C 9.4 °C 1010 hPa South 6.8 km/h 12.9 km/h 74% 0 mm 25 W/m2
20:39 13.8 °C 9.4 °C 1010 hPa South 6.4 km/h 14.5 km/h 74.8% 0 mm 21 W/m2
20:44 13.7 °C 9.3 °C 1010 hPa SSW 8.2 km/h 20.9 km/h 75% 0 mm 21 W/m2
20:49 13.6 °C 9.3 °C 1010 hPa SSW 5.3 km/h 20.9 km/h 75% 0 mm 19 W/m2
20:54 13.5 °C 9.2 °C 1010 hPa SSW 5.3 km/h 11.3 km/h 75% 0 mm 16 W/m2
20:59 13.4 °C 9.1 °C 1010 hPa SSW 3.1 km/h 9.7 km/h 75% 0 mm 14 W/m2
21:04 13.3 °C 9.1 °C 1010 hPa SSW 0.8 km/h 9.7 km/h 75% 0 mm 12 W/m2
21:09 13.2 °C 9.1 °C 1010 hPa SSW 3.9 km/h 8 km/h 75.7% 0 mm 9 W/m2
21:14 13.2 °C 9.1 °C 1010 hPa South 2.7 km/h 8 km/h 76% 0 mm 7 W/m2
21:19 13 °C 8.9 °C 1010 hPa South 3.5 km/h 8 km/h 76% 0 mm 7 W/m2
21:24 12.9 °C 8.8 °C 1010 hPa South 2.6 km/h 8 km/h 76% 0 mm 5 W/m2
21:29 12.8 °C 8.7 °C 1010 hPa SSW 1.4 km/h 8 km/h 76% 0 mm 0 W/m2
21:34 12.7 °C 8.6 °C 1010 hPa SSW 2.9 km/h 8 km/h 76% 0 mm 0 W/m2
21:39 12.6 °C 8.4 °C 1010 hPa SSW 1.6 km/h 9.7 km/h 76% 0 mm 0 W/m2
21:44 12.4 °C 8.3 °C 1010 hPa SSW 1.9 km/h 9.7 km/h 76% 0 mm 0 W/m2
21:49 12.4 °C 8.3 °C 1010 hPa SSW 0.3 km/h 3.2 km/h 76% 0 mm 0 W/m2
21:54 12.3 °C 8.3 °C 1010 hPa SSW 0.5 km/h 3.2 km/h 76.6% 0 mm 0 W/m2
21:59 12.3 °C 8.3 °C 1010 hPa SSW 0.5 km/h 3.2 km/h 77% 0 mm 0 W/m2
22:04 12.2 °C 8.3 °C 1010 hPa SSW 2.1 km/h 6.4 km/h 77% 0 mm 0 W/m2
22:09 12.2 °C 8.3 °C 1010.4 hPa SSW 0.5 km/h 3.2 km/h 77% 0 mm 0 W/m2
22:14 12 °C 8.2 °C 1010.4 hPa SSW 1.4 km/h 9.7 km/h 77.3% 0 mm 0 W/m2
22:19 11.9 °C 8.2 °C 1010.4 hPa SSW 1.9 km/h 8 km/h 78% 0 mm 0 W/m2
22:24 11.8 °C 8.2 °C 1010.4 hPa South 4.2 km/h 9.7 km/h 78.6% 0 mm 0 W/m2
22:29 11.7 °C 8.3 °C 1010.4 hPa SSW 6.6 km/h 12.9 km/h 79.3% 0 mm 0 W/m2
22:34 11.6 °C 8.2 °C 1010.4 hPa South 4.8 km/h 12.9 km/h 80% 0 mm 0 W/m2
22:39 11.5 °C 8.3 °C 1010.4 hPa South 5.5 km/h 11.3 km/h 80.2% 0 mm 0 W/m2
22:44 11.4 °C 8.3 °C 1010.4 hPa South 5 km/h 11.3 km/h 81% 0 mm 0 W/m2
22:49 11.3 °C 8.3 °C 1010.4 hPa South 10.1 km/h 14.5 km/h 81.5% 0 mm 0 W/m2
22:54 11.3 °C 8.3 °C 1010.4 hPa South 7.1 km/h 14.5 km/h 82% 0 mm 0 W/m2
22:59 11.3 °C 8.4 °C 1010.7 hPa South 6.1 km/h 11.3 km/h 82.8% 0 mm 0 W/m2
23:04 11.2 °C 8.4 °C 1010.7 hPa South 9.3 km/h 16.1 km/h 83% 0 mm 0 W/m2
23:09 11.2 °C 8.6 °C 1010.7 hPa SSW 7.4 km/h 16.1 km/h 83.9% 0 mm 0 W/m2
23:14 11.2 °C 8.6 °C 1010.7 hPa South 10.3 km/h 17.7 km/h 84% 0 mm 0 W/m2
23:19 11.2 °C 8.7 °C 1010.7 hPa South 7.7 km/h 16.1 km/h 84.6% 0 mm 0 W/m2
23:24 11.2 °C 8.8 °C 1010.7 hPa South 10 km/h 19.3 km/h 85% 0 mm 0 W/m2
23:29 11.2 °C 8.8 °C 1010.7 hPa South 7.1 km/h 17.7 km/h 85% 0 mm 0 W/m2
23:34 11.1 °C 8.7 °C 1010.7 hPa South 6.9 km/h 16.1 km/h 85% 0 mm 0 W/m2
23:39 11 °C 8.7 °C 1010.7 hPa South 9.2 km/h 17.7 km/h 85.6% 0 mm 0 W/m2
23:44 11 °C 8.7 °C 1010.7 hPa South 9 km/h 16.1 km/h 86% 0 mm 0 W/m2
23:49 11 °C 8.7 °C 1010.7 hPa South 8 km/h 14.5 km/h 86% 0 mm 0 W/m2
23:54 10.9 °C 8.7 °C 1010.7 hPa South 8.7 km/h 14.5 km/h 86.3% 0 mm 0 W/m2
23:59 10.9 °C 8.8 °C 1010.7 hPa South 6.6 km/h 11.3 km/h 87% 0 mm 0 W/m2
Bath Spa Weather
Compliments of Weather Underground - 2 mb